Dundee, MI

12:10 AM EDT on April 22, 2015 (GMT -0400)
Lambertville | | Change Station
CLOSE
Current Station
Airport
Location: Lambertville,
Elevation: 666 ft
Nearby Weather Stations

Elev 666 ft 41.74 °N, 83.66 °W | Updated 16 minutes ago

Overcast
Overcast
43 °F
Feels Like 39 °F
N
7
Wind Variable Wind from WNW

Today
High -- | Low -- °F
--% Chance of Precip.
Yesterday
High -- | Low -- °F
Precip. -- in
6:43 AM 8:23 PM
Waxing Crescent, 15% visible
Pressure 29.68 in
Visibility 10.0 miles
Clouds Scattered Clouds 6000 ft
Scattered Clouds 7500 ft
Mostly Cloudy 8000 ft
Windchill 39 °F
Dew Point 30 °F
Humidity 61%
Rainfall 0.00 in
Snow Depth Not available.
UV 0 out of 12
Pollen 11.30 out of 12
Air Quality Not available.
Flu Activity Regional
METAR KDUH 220354Z AUTO 29006KT 10SM SCT060 SCT075 BKN080 06/M01 A2968 RMK AO2

More Conditions Fewer Conditions

Pressure 29.68 in
Visibility 10.0 miles
Clouds Scattered Clouds 6000 ft
Scattered Clouds 7500 ft
Mostly Cloudy 8000 ft
Windchill 39 °F
Dew Point 30 °F
Humidity 61%
Rainfall 0.00 in
Snow Depth Not available.
UV 0 out of 12
Pollen 11.30 out of 12
Air Quality Not available.
Flu Activity Regional
METAR KDUH 220354Z AUTO 29006KT 10SM SCT060 SCT075 BKN080 06/M01 A2968 RMK AO2

More Conditions Fewer Conditions

10-Day Weather Forecast

Almanac

Astronomy

Apr. 22, 2015 Rise Set
Actual Time
Civil Twilight
Nautical Twilight
Astronomical Twilight
Moon
Length of Visible Light
Length of Day
Tomorrow will be .
, % of the Moon is Illuminated

Today's Extremes

State Highs State Lows

Community

WunderPhotos

Upload Photos

1,815,666 photos uploaded!

WunderBlogs® & News

Nearby

Air Quality

  Air Quality AQ Index Pollutant
Not available.

Snow Depth

Station Depth Elevation

Earthquake Activity

City Distance Mag. Time & Date
Minimum magnitude displayed is 2.5.

Coastal Water Temperatures

Place Temperature

Stations

Nearby Weather Stations

Station Location Temp. Windchill Dew Point Humidity Wind Precip. Elev Updated Type